sensor_id;sensor_type;location;lat;lon;timestamp;pressure;altitude;pressure_sealevel;temperature;humidity
57904;BME280;43720;47.462;19.030;2023-02-23T04:57:04;100422.75;;;8.55;62.60
57904;BME280;43720;47.462;19.030;2023-02-23T05:00:07;100421.78;;;8.51;63.38
57904;BME280;43720;47.462;19.030;2023-02-23T05:03:10;100415.59;;;8.46;63.40
57904;BME280;43720;47.462;19.030;2023-02-23T05:06:16;100415.69;;;8.49;63.51
57904;BME280;43720;47.462;19.030;2023-02-23T05:09:19;100424.47;;;8.54;63.01
57904;BME280;43720;47.462;19.030;2023-02-23T05:12:21;100419.94;;;8.46;62.88
57904;BME280;43720;47.462;19.030;2023-02-23T05:15:24;100428.72;;;8.51;63.31
57904;BME280;43720;47.462;19.030;2023-02-23T05:18:26;100431.34;;;8.51;63.21
57904;BME280;43720;47.462;19.030;2023-02-23T05:21:29;100426.09;;;8.49;63.17
57904;BME280;43720;47.462;19.030;2023-02-23T05:24:32;100428.72;;;8.51;62.97
57904;BME280;43720;47.462;19.030;2023-02-23T05:27:34;100430.50;;;8.52;62.89
57904;BME280;43720;47.462;19.030;2023-02-23T05:30:38;100438.31;;;8.52;63.35
57904;BME280;43720;47.462;19.030;2023-02-23T05:33:40;100438.31;;;8.52;63.06
57904;BME280;43720;47.462;19.030;2023-02-23T05:36:47;100439.50;;;8.65;62.47
57904;BME280;43720;47.462;19.030;2023-02-23T05:39:49;100435.41;;;8.40;63.67
57904;BME280;43720;47.462;19.030;2023-02-23T05:42:57;100431.03;;;8.39;63.42
57904;BME280;43720;47.462;19.030;2023-02-23T05:46:00;100436.09;;;8.32;63.89
57904;BME280;43720;47.462;19.030;2023-02-23T05:49:02;100436.44;;;8.46;65.85
57904;BME280;43720;47.462;19.030;2023-02-23T05:52:05;100434.22;;;8.63;62.56
57904;BME280;43720;47.462;19.030;2023-02-23T05:55:09;100436.19;;;8.73;63.23
57904;BME280;43720;47.462;19.030;2023-02-23T05:58:12;100437.84;;;8.68;63.22
57904;BME280;43720;47.462;19.030;2023-02-23T06:01:15;100448.19;;;8.65;63.36
57904;BME280;43720;47.462;19.030;2023-02-23T06:04:19;100451.28;;;8.50;64.52
57904;BME280;43720;47.462;19.030;2023-02-23T06:07:24;100451.34;;;8.52;63.06
57904;BME280;43720;47.462;19.030;2023-02-23T06:10:26;100454.34;;;8.69;61.34
57904;BME280;43720;47.462;19.030;2023-02-23T06:13:29;100456.94;;;8.69;61.91
57904;BME280;43720;47.462;19.030;2023-02-23T06:16:32;100459.47;;;8.66;61.60
57904;BME280;43720;47.462;19.030;2023-02-23T06:19:35;100463.19;;;8.75;61.35
57904;BME280;43720;47.462;19.030;2023-02-23T06:22:37;100461.75;;;8.88;61.20
57904;BME280;43720;47.462;19.030;2023-02-23T06:25:40;100473.03;;;8.87;61.17
57904;BME280;43720;47.462;19.030;2023-02-23T06:28:43;100477.00;;;8.71;61.82
57904;BME280;43720;47.462;19.030;2023-02-23T06:31:45;100481.50;;;8.78;61.46
57904;BME280;43720;47.462;19.030;2023-02-23T06:34:47;100479.81;;;8.80;60.40
57904;BME280;43720;47.462;19.030;2023-02-23T06:37:50;100480.75;;;8.84;60.13
57904;BME280;43720;47.462;19.030;2023-02-23T06:40:53;100479.78;;;8.79;60.58
57904;BME280;43720;47.462;19.030;2023-02-23T06:43:55;100486.84;;;8.83;60.58
57904;BME280;43720;47.462;19.030;2023-02-23T06:46:57;100494.53;;;8.78;60.61
57904;BME280;43720;47.462;19.030;2023-02-23T06:49:59;100492.34;;;8.97;60.64
57904;BME280;43720;47.462;19.030;2023-02-23T06:53:03;100495.09;;;9.03;59.93
57904;BME280;43720;47.462;19.030;2023-02-23T06:56:06;100501.03;;;8.97;59.74
57904;BME280;43720;47.462;19.030;2023-02-23T06:59:08;100496.00;;;9.05;60.18
57904;BME280;43720;47.462;19.030;2023-02-23T07:02:12;100500.50;;;9.11;59.79
57904;BME280;43720;47.462;19.030;2023-02-23T07:05:14;100499.66;;;9.13;58.83
57904;BME280;43720;47.462;19.030;2023-02-23T07:08:17;100505.81;;;9.17;58.25
57904;BME280;43720;47.462;19.030;2023-02-23T07:11:20;100505.13;;;9.24;58.20
57904;BME280;43720;47.462;19.030;2023-02-23T07:14:22;100506.16;;;9.32;57.96
57904;BME280;43720;47.462;19.030;2023-02-23T07:17:28;100509.47;;;9.23;59.04
57904;BME280;43720;47.462;19.030;2023-02-23T07:20:30;100513.88;;;9.27;58.29
57904;BME280;43720;47.462;19.030;2023-02-23T07:23:34;100508.75;;;9.30;59.00
57904;BME280;43720;47.462;19.030;2023-02-23T07:26:36;100502.69;;;9.31;57.44
57904;BME280;43720;47.462;19.030;2023-02-23T07:29:38;100507.81;;;9.27;57.76
57904;BME280;43720;47.462;19.030;2023-02-23T07:32:40;100511.28;;;9.27;58.04
57904;BME280;43720;47.462;19.030;2023-02-23T07:35:43;100510.66;;;9.38;57.84
57904;BME280;43720;47.462;19.030;2023-02-23T07:38:49;100513.03;;;9.28;57.07
57904;BME280;43720;47.462;19.030;2023-02-23T07:42:01;100512.94;;;9.24;57.35
57904;BME280;43720;47.462;19.030;2023-02-23T07:45:15;100516.47;;;9.26;56.47
57904;BME280;43720;47.462;19.030;2023-02-23T07:48:19;100513.38;;;9.44;56.03
57904;BME280;43720;47.462;19.030;2023-02-23T07:51:21;100516.22;;;9.56;55.97
57904;BME280;43720;47.462;19.030;2023-02-23T07:54:24;100507.66;;;9.62;56.27
57904;BME280;43720;47.462;19.030;2023-02-23T07:57:27;100507.75;;;9.68;57.12
57904;BME280;43720;47.462;19.030;2023-02-23T08:00:30;100507.75;;;9.66;56.40
57904;BME280;43720;47.462;19.030;2023-02-23T08:03:33;100507.03;;;9.75;57.43
57904;BME280;43720;47.462;19.030;2023-02-23T08:06:36;100506.56;;;9.52;57.76
57904;BME280;43720;47.462;19.030;2023-02-23T08:09:38;100514.06;;;9.35;57.44
57904;BME280;43720;47.462;19.030;2023-02-23T08:12:40;100517.53;;;9.34;58.12
57904;BME280;43720;47.462;19.030;2023-02-23T08:15:43;100514.41;;;9.52;58.51
57904;BME280;43720;47.462;19.030;2023-02-23T08:18:45;100512.75;;;9.55;57.98
57904;BME280;43720;47.462;19.030;2023-02-23T08:21:48;100510.12;;;9.55;57.23
57904;BME280;43720;47.462;19.030;2023-02-23T08:24:50;100517.31;;;9.66;56.49
57904;BME280;43720;47.462;19.030;2023-02-23T08:27:53;100514.97;;;9.79;56.56
57904;BME280;43720;47.462;19.030;2023-02-23T08:30:56;100521.97;;;9.80;54.27
57904;BME280;43720;47.462;19.030;2023-02-23T08:33:58;100517.84;;;9.92;55.24
57904;BME280;43720;47.462;19.030;2023-02-23T08:37:01;100522.06;;;9.85;56.21
57904;BME280;43720;47.462;19.030;2023-02-23T08:40:04;100515.47;;;10.05;54.25
57904;BME280;43720;47.462;19.030;2023-02-23T08:43:06;100523.59;;;10.21;54.65
57904;BME280;43720;47.462;19.030;2023-02-23T08:46:11;100521.56;;;10.04;55.97
57904;BME280;43720;47.462;19.030;2023-02-23T08:49:13;100527.06;;;10.20;55.27
57904;BME280;43720;47.462;19.030;2023-02-23T08:52:16;100520.41;;;10.37;53.28
57904;BME280;43720;47.462;19.030;2023-02-23T08:55:19;100524.47;;;10.21;54.06
57904;BME280;43720;47.462;19.030;2023-02-23T08:58:22;100531.50;;;10.24;55.23
57904;BME280;43720;47.462;19.030;2023-02-23T09:01:25;100533.31;;;10.26;55.10
57904;BME280;43720;47.462;19.030;2023-02-23T09:04:30;100527.12;;;10.24;53.73
57904;BME280;43720;47.462;19.030;2023-02-23T09:07:34;100529.91;;;10.31;53.92
57904;BME280;43720;47.462;19.030;2023-02-23T09:10:38;100534.75;;;10.58;53.02
57904;BME280;43720;47.462;19.030;2023-02-23T09:13:41;100529.97;;;10.87;52.25
57904;BME280;43720;47.462;19.030;2023-02-23T09:16:44;100530.81;;;10.86;52.48
57904;BME280;43720;47.462;19.030;2023-02-23T09:19:47;100527.16;;;10.76;52.61
57904;BME280;43720;47.462;19.030;2023-02-23T09:22:50;100533.06;;;10.61;52.36
57904;BME280;43720;47.462;19.030;2023-02-23T09:25:52;100531.38;;;10.66;53.45
57904;BME280;43720;47.462;19.030;2023-02-23T09:28:55;100534.25;;;10.82;53.14
57904;BME280;43720;47.462;19.030;2023-02-23T09:31:59;100528.16;;;10.81;52.83
57904;BME280;43720;47.462;19.030;2023-02-23T09:35:03;100535.34;;;10.96;51.90
57904;BME280;43720;47.462;19.030;2023-02-23T09:38:07;100535.59;;;11.13;51.07
57904;BME280;43720;47.462;19.030;2023-02-23T09:45:00;100541.75;;;11.16;52.01
57904;BME280;43720;47.462;19.030;2023-02-23T09:48:12;100537.34;;;11.12;51.48
57904;BME280;43720;47.462;19.030;2023-02-23T09:51:17;100539.25;;;11.24;51.44
57904;BME280;43720;47.462;19.030;2023-02-23T09:54:24;100545.19;;;11.12;53.32
57904;BME280;43720;47.462;19.030;2023-02-23T09:57:36;100537.44;;;11.20;51.97
57904;BME280;43720;47.462;19.030;2023-02-23T10:00:42;100541.59;;;11.07;51.41
57904;BME280;43720;47.462;19.030;2023-02-23T10:03:58;100535.25;;;10.91;50.74
57904;BME280;43720;47.462;19.030;2023-02-23T10:26:50;100538.66;;;11.45;51.63
57904;BME280;43720;47.462;19.030;2023-02-23T10:34:25;100542.16;;;11.45;52.28
57904;BME280;43720;47.462;19.030;2023-02-23T10:37:28;100527.16;;;11.31;51.24
57904;BME280;43720;47.462;19.030;2023-02-23T10:40:32;100521.87;;;11.27;52.48
57904;BME280;43720;47.462;19.030;2023-02-23T10:43:35;100519.47;;;11.46;50.52
57904;BME280;43720;47.462;19.030;2023-02-23T10:46:39;100514.13;;;11.37;50.73
57904;BME280;43720;47.462;19.030;2023-02-23T10:49:52;100518.53;;;11.39;50.20
57904;BME280;43720;47.462;19.030;2023-02-23T10:53:22;100511.75;;;11.55;50.55
57904;BME280;43720;47.462;19.030;2023-02-23T10:56:26;100504.00;;;11.63;50.73
57904;BME280;43720;47.462;19.030;2023-02-23T10:59:35;100500.47;;;11.59;49.89
57904;BME280;43720;47.462;19.030;2023-02-23T11:02:37;100505.44;;;11.41;51.35
57904;BME280;43720;47.462;19.030;2023-02-23T11:05:46;100492.47;;;11.48;49.93
57904;BME280;43720;47.462;19.030;2023-02-23T11:08:51;100490.06;;;11.67;49.73
57904;BME280;43720;47.462;19.030;2023-02-23T11:11:59;100489.47;;;11.88;50.25
57904;BME280;43720;47.462;19.030;2023-02-23T11:15:25;100484.09;;;11.80;49.46
57904;BME280;43720;47.462;19.030;2023-02-23T11:18:58;100478.69;;;11.65;48.73
57904;BME280;43720;47.462;19.030;2023-02-23T11:22:03;100481.34;;;11.68;49.99
57904;BME280;43720;47.462;19.030;2023-02-23T11:25:42;100479.72;;;11.81;48.46
57904;BME280;43720;47.462;19.030;2023-02-23T11:28:51;100472.81;;;11.84;49.49
57904;BME280;43720;47.462;19.030;2023-02-23T11:31:57;100473.53;;;11.71;50.30
57904;BME280;43720;47.462;19.030;2023-02-23T11:38:25;100472.78;;;11.83;49.63
57904;BME280;43720;47.462;19.030;2023-02-23T11:41:28;100467.56;;;11.83;49.22
57904;BME280;43720;47.462;19.030;2023-02-23T11:44:33;100474.50;;;11.78;49.47
57904;BME280;43720;47.462;19.030;2023-02-23T11:47:43;100468.38;;;11.80;50.35
57904;BME280;43720;47.462;19.030;2023-02-23T11:50:47;100466.63;;;11.78;49.11
57904;BME280;43720;47.462;19.030;2023-02-23T11:53:51;100461.13;;;11.55;49.85
57904;BME280;43720;47.462;19.030;2023-02-23T11:56:54;100456.19;;;11.82;49.62
57904;BME280;43720;47.462;19.030;2023-02-23T12:00:12;100454.44;;;11.81;50.47
57904;BME280;43720;47.462;19.030;2023-02-23T12:03:20;100454.44;;;11.81;50.56
57904;BME280;43720;47.462;19.030;2023-02-23T12:06:35;100462.06;;;11.61;51.11
57904;BME280;43720;47.462;19.030;2023-02-23T12:09:39;100457.91;;;11.80;51.73
57904;BME280;43720;47.462;19.030;2023-02-23T12:16:22;100449.00;;;11.63;50.86
57904;BME280;43720;47.462;19.030;2023-02-23T12:19:35;100443.91;;;11.76;49.00
57904;BME280;43720;47.462;19.030;2023-02-23T12:22:50;100444.69;;;11.66;50.82
57904;BME280;43720;47.462;19.030;2023-02-23T12:25:58;100441.16;;;11.64;50.56
57904;BME280;43720;47.462;19.030;2023-02-23T12:29:26;100437.09;;;11.91;50.54
57904;BME280;43720;47.462;19.030;2023-02-23T12:32:53;100430.06;;;11.87;50.68
57904;BME280;43720;47.462;19.030;2023-02-23T12:39:15;100425.12;;;12.17;49.26
57904;BME280;43720;47.462;19.030;2023-02-23T12:42:29;100425.97;;;12.13;50.86
57904;BME280;43720;47.462;19.030;2023-02-23T12:45:49;100417.25;;;12.17;49.77
57904;BME280;43720;47.462;19.030;2023-02-23T12:49:02;100410.22;;;12.10;50.11
57904;BME280;43720;47.462;19.030;2023-02-23T12:52:11;100410.06;;;11.93;49.33
57904;BME280;43720;47.462;19.030;2023-02-23T12:55:22;100401.38;;;11.99;50.21
57904;BME280;43720;47.462;19.030;2023-02-23T12:58:41;100404.03;;;12.01;51.38
57904;BME280;43720;47.462;19.030;2023-02-23T13:01:57;100392.94;;;12.37;50.12
57904;BME280;43720;47.462;19.030;2023-02-23T13:24:48;100372.28;;;12.92;48.03
57904;BME280;43720;47.462;19.030;2023-02-23T13:27:55;100373.97;;;12.78;48.70
57904;BME280;43720;47.462;19.030;2023-02-23T13:31:01;100364.41;;;12.89;48.31
57904;BME280;43720;47.462;19.030;2023-02-23T13:34:15;100365.31;;;12.89;48.42
57904;BME280;43720;47.462;19.030;2023-02-23T13:40:58;100360.22;;;13.23;47.92
57904;BME280;43720;47.462;19.030;2023-02-23T13:48:01;100358.47;;;13.27;47.42
57904;BME280;43720;47.462;19.030;2023-02-23T13:54:32;100347.88;;;13.02;46.59
57904;BME280;43720;47.462;19.030;2023-02-23T13:57:42;100356.56;;;12.95;49.13
57904;BME280;43720;47.462;19.030;2023-02-23T14:00:52;100355.81;;;13.20;48.02
57904;BME280;43720;47.462;19.030;2023-02-23T14:04:00;100345.37;;;13.28;47.47
57904;BME280;43720;47.462;19.030;2023-02-23T14:10:21;100354.91;;;13.09;48.60
57904;BME280;43720;47.462;19.030;2023-02-23T14:13:30;100348.66;;;12.86;49.00
57904;BME280;43720;47.462;19.030;2023-02-23T14:16:33;100348.53;;;12.60;49.96
57904;BME280;43720;47.462;19.030;2023-02-23T14:19:37;100358.06;;;12.47;49.95
57904;BME280;43720;47.462;19.030;2023-02-23T14:29:30;100349.59;;;12.94;50.66
57904;BME280;43720;47.462;19.030;2023-02-23T14:32:40;100353.97;;;12.98;49.74
57904;BME280;43720;47.462;19.030;2023-02-23T14:35:47;100354.75;;;12.79;50.28
57904;BME280;43720;47.462;19.030;2023-02-23T14:41:58;100345.28;;;13.17;50.32
57904;BME280;43720;47.462;19.030;2023-02-23T14:45:15;100348.00;;;13.33;49.18
57904;BME280;43720;47.462;19.030;2023-02-23T14:48:18;100348.72;;;13.00;50.19
57904;BME280;43720;47.462;19.030;2023-02-23T14:51:35;100349.47;;;12.71;50.62
57904;BME280;43720;47.462;19.030;2023-02-23T14:54:43;100342.41;;;12.59;50.83
57904;BME280;43720;47.462;19.030;2023-02-23T14:57:45;100352.87;;;12.56;52.98
57904;BME280;43720;47.462;19.030;2023-02-23T15:00:48;100343.28;;;12.66;51.50
57904;BME280;43720;47.462;19.030;2023-02-23T15:04:23;100341.53;;;12.62;52.42
57904;BME280;43720;47.462;19.030;2023-02-23T15:07:30;100336.19;;;12.42;52.73
57904;BME280;43720;47.462;19.030;2023-02-23T15:13:39;100342.97;;;12.15;52.24
57904;BME280;43720;47.462;19.030;2023-02-23T15:16:42;100339.34;;;11.95;53.12
57904;BME280;43720;47.462;19.030;2023-02-23T15:19:47;100342.72;;;11.85;54.09
57904;BME280;43720;47.462;19.030;2023-02-23T15:22:52;100336.66;;;11.86;54.54
57904;BME280;43720;47.462;19.030;2023-02-23T15:25:56;100337.41;;;11.79;53.70
57904;BME280;43720;47.462;19.030;2023-02-23T15:29:05;100333.13;;;11.84;54.45
57904;BME280;43720;47.462;19.030;2023-02-23T15:32:22;100332.16;;;11.74;54.34
57904;BME280;43720;47.462;19.030;2023-02-23T15:35:30;100337.16;;;11.52;57.35
57904;BME280;43720;47.462;19.030;2023-02-23T15:38:46;100331.97;;;11.57;57.91
57904;BME280;43720;47.462;19.030;2023-02-23T15:41:51;100330.34;;;11.68;56.00
57904;BME280;43720;47.462;19.030;2023-02-23T15:44:59;100327.59;;;11.56;56.66
57904;BME280;43720;47.462;19.030;2023-02-23T15:48:06;100333.69;;;11.50;57.40
57904;BME280;43720;47.462;19.030;2023-02-23T15:51:20;100331.94;;;11.52;58.14
57904;BME280;43720;47.462;19.030;2023-02-23T15:54:29;100328.44;;;11.54;56.90
57904;BME280;43720;47.462;19.030;2023-02-23T15:57:46;100329.19;;;11.39;57.63
57904;BME280;43720;47.462;19.030;2023-02-23T16:01:00;100329.06;;;11.30;59.06
57904;BME280;43720;47.462;19.030;2023-02-23T16:11:35;100325.63;;;11.32;58.15
57904;BME280;43720;47.462;19.030;2023-02-23T16:14:43;100331.72;;;11.33;56.85
57904;BME280;43720;47.462;19.030;2023-02-23T16:17:52;100336.84;;;11.22;57.20
